Time;durP1;ratioP1;P1;durP2;ratioP2;P2;SDS_P1;SDS_P2;PMS_P1;PMS_P2;Temp;Humidity;BMP_temperature;BMP_pressure;BME280_temperature;BME280_humidity;BME280_pressure;Samples;Min_cycle;Max_cycle;Signal;HPM_P1;HPM_P2
2022/03/24 00:02:15;;;;;;;7.25;6.55;;;20.20;42.30;;;;;;5015214;28;20187;-69
2022/03/24 00:04:40;;;;;;;7.70;7.00;;;20.20;42.20;;;;;;5016290;28;20207;-68
2022/03/24 00:07:06;;;;;;;7.47;6.78;;;20.20;42.20;;;;;;4999852;28;20210;-68
2022/03/24 00:09:32;;;;;;;7.78;7.07;;;20.20;42.20;;;;;;5015821;28;20222;-68
2022/03/24 00:11:59;;;;;;;7.72;6.93;;;20.20;42.30;;;;;;5016107;28;20187;-69
2022/03/24 00:14:25;;;;;;;7.68;6.97;;;20.20;42.20;;;;;;5015873;28;20257;-69
2022/03/24 00:16:51;;;;;;;8.43;7.63;;;20.20;42.20;;;;;;5015841;28;20251;-69
2022/03/24 00:19:19;;;;;;;8.40;7.60;;;20.20;42.10;;;;;;4999622;28;20194;-69
2022/03/24 00:21:45;;;;;;;7.97;7.20;;;20.20;42.10;;;;;;5015808;28;20192;-69
2022/03/24 00:24:11;;;;;;;7.68;6.97;;;20.20;42.00;;;;;;4995968;28;20208;-69
2022/03/24 00:26:37;;;;;;;7.88;7.07;;;20.20;42.00;;;;;;5013359;28;20187;-69
2022/03/24 00:29:04;;;;;;;7.93;7.22;;;20.20;42.00;;;;;;4979794;28;20216;-69
2022/03/24 00:31:31;;;;;;;7.05;6.40;;;20.20;41.80;;;;;;4979995;28;20188;-68
2022/03/24 00:33:57;;;;;;;6.97;6.38;;;20.20;41.90;;;;;;4995728;28;20184;-69
2022/03/24 00:36:24;;;;;;;7.00;6.40;;;20.20;41.90;;;;;;4979448;28;20188;-68
2022/03/24 00:38:52;;;;;;;6.72;6.03;;;20.20;42.00;;;;;;4979882;28;20219;-69
2022/03/24 00:41:22;;;;;;;7.13;6.47;;;20.20;42.10;;;;;;4979540;28;20238;-69
2022/03/24 00:43:49;;;;;;;6.95;6.25;;;20.20;42.20;;;;;;4979751;28;20198;-68
2022/03/24 00:46:23;;;;;;;7.53;6.03;;;20.20;42.20;;;;;;5041133;23;20243;-69
2022/03/24 00:48:53;;;;;;;7.72;6.00;;;20.20;42.20;;;;;;4976304;28;20328;-69
2022/03/24 00:51:20;;;;;;;5.72;5.18;;;20.20;42.20;;;;;;4976269;28;20279;-69
2022/03/24 00:53:47;;;;;;;6.15;5.65;;;20.20;42.20;;;;;;4976071;28;20177;-69
2022/03/24 00:56:13;;;;;;;6.38;5.78;;;20.20;42.20;;;;;;4975903;28;20205;-68
2022/03/24 00:58:41;;;;;;;7.13;6.43;;;20.20;42.20;;;;;;4976279;28;20177;-68
2022/03/24 01:01:11;;;;;;;6.95;6.35;;;20.20;42.20;;;;;;4976155;28;20307;-69
2022/03/24 01:03:38;;;;;;;7.45;6.75;;;20.20;42.10;;;;;;4993402;28;20185;-69
2022/03/24 01:06:04;;;;;;;7.25;6.55;;;20.20;42.00;;;;;;4975548;28;20201;-68
2022/03/24 01:08:31;;;;;;;7.65;6.95;;;20.20;42.00;;;;;;4975872;28;20295;-68
2022/03/24 01:10:57;;;;;;;7.55;6.82;;;20.10;41.80;;;;;;4976078;28;20187;-68
2022/03/24 01:13:23;;;;;;;7.43;6.72;;;20.10;41.70;;;;;;4993080;28;20670;-68
2022/03/24 01:15:50;;;;;;;7.30;6.63;;;20.20;41.80;;;;;;4975557;28;20207;-68
2022/03/24 01:18:18;;;;;;;6.53;5.93;;;20.10;41.70;;;;;;4992177;28;20658;-68
2022/03/24 01:20:45;;;;;;;6.82;6.22;;;20.10;41.90;;;;;;4976033;28;20196;-68
2022/03/24 01:23:12;;;;;;;5.70;5.18;;;20.10;41.70;;;;;;4992994;28;20181;-68
2022/03/24 01:25:41;;;;;;;6.40;5.80;;;20.10;42.00;;;;;;4991652;28;20385;-68
2022/03/24 01:28:09;;;;;;;6.20;5.60;;;20.10;42.00;;;;;;4991854;28;20202;-68
2022/03/24 01:30:38;;;;;;;6.18;5.68;;;20.10;42.10;;;;;;4975484;28;20208;-68
2022/03/24 01:33:04;;;;;;;6.53;5.93;;;20.10;42.00;;;;;;4975590;28;20185;-69
2022/03/24 01:35:29;;;;;;;6.45;5.85;;;20.10;42.10;;;;;;4975717;28;20208;-68
2022/03/24 01:37:55;;;;;;;6.65;6.03;;;20.10;42.10;;;;;;4975426;28;20562;-68
2022/03/24 01:40:21;;;;;;;5.93;5.43;;;20.10;42.00;;;;;;4992883;28;20231;-68
2022/03/24 01:42:47;;;;;;;6.28;5.68;;;20.20;42.80;;;;;;4975743;28;20235;-69
2022/03/24 01:45:14;;;;;;;5.70;5.20;;;20.20;42.10;;;;;;4975416;28;20256;-68
2022/03/24 01:47:40;;;;;;;6.40;5.88;;;20.10;42.10;;;;;;4991458;28;20247;-69
2022/03/24 01:50:11;;;;;;;6.80;6.13;;;20.10;42.10;;;;;;4975486;28;20216;-68
2022/03/24 01:52:38;;;;;;;6.65;6.05;;;20.10;41.90;;;;;;4975450;28;20208;-68
2022/03/24 01:55:07;;;;;;;6.20;5.70;;;20.10;41.90;;;;;;4959151;28;20228;-68
2022/03/24 01:57:35;;;;;;;6.88;6.18;;;20.10;41.80;;;;;;4975593;28;20177;-68
2022/03/24 02:00:03;;;;;;;6.85;6.22;;;20.10;41.70;;;;;;4975635;28;20600;-69
2022/03/24 02:02:42;;;;;;;6.30;5.70;;;20.10;41.70;;;;;;4976967;28;20227;-69
2022/03/24 02:05:10;;;;;;;6.10;5.50;;;20.10;41.80;;;;;;4975168;28;20204;-68
2022/03/24 02:07:37;;;;;;;6.15;5.55;;;20.10;41.70;;;;;;4975143;28;20601;-68
2022/03/24 02:10:08;;;;;;;6.00;5.50;;;20.10;42.00;;;;;;4975103;28;20284;-69
2022/03/24 02:12:35;;;;;;;6.05;5.55;;;20.10;42.00;;;;;;4974987;28;20262;-68
2022/03/24 02:15:02;;;;;;;5.68;5.18;;;20.10;42.00;;;;;;4975223;28;20201;-69
2022/03/24 02:17:30;;;;;;;5.85;5.25;;;20.10;42.00;;;;;;4975261;28;20213;-68
2022/03/24 02:20:00;;;;;;;5.50;5.10;;;20.10;42.00;;;;;;4975456;28;20189;-69
2022/03/24 02:22:28;;;;;;;5.60;5.07;;;20.10;42.10;;;;;;4959025;28;20185;-68
2022/03/24 02:24:54;;;;;;;5.90;5.38;;;20.10;42.10;;;;;;4976605;28;20240;-68
2022/03/24 02:27:22;;;;;;;5.85;5.35;;;20.10;42.10;;;;;;4978719;28;20199;-69
2022/03/24 02:29:49;;;;;;;6.20;5.68;;;20.10;42.00;;;;;;4962609;28;20248;-68
2022/03/24 02:32:20;;;;;;;6.72;6.03;;;20.10;41.90;;;;;;4978675;28;20181;-68
2022/03/24 02:34:51;;;;;;;6.45;5.85;;;20.10;41.90;;;;;;4978672;28;20201;-68
2022/03/24 02:37:25;;;;;;;7.07;6.38;;;20.10;42.00;;;;;;4962515;28;20408;-68
2022/03/24 02:39:56;;;;;;;6.60;6.00;;;20.10;41.70;;;;;;4979139;28;20264;-68
2022/03/24 02:42:27;;;;;;;5.90;5.40;;;20.00;41.60;;;;;;4978808;28;20189;-68
2022/03/24 02:45:00;;;;;;;4.82;4.43;;;20.00;41.60;;;;;;4978736;28;20216;-68
2022/03/24 02:47:26;;;;;;;4.97;4.57;;;20.10;41.90;;;;;;4978598;28;20177;-68
2022/03/24 02:49:54;;;;;;;5.47;5.07;;;20.00;41.90;;;;;;4978324;28;20220;-68
2022/03/24 02:52:20;;;;;;;5.75;5.00;;;20.10;42.00;;;;;;4962178;28;20200;-69
2022/03/24 02:54:46;;;;;;;5.07;4.68;;;20.00;42.00;;;;;;4994505;28;20197;-68
2022/03/24 02:57:13;;;;;;;5.50;5.00;;;20.00;41.90;;;;;;4978191;28;20189;-68
2022/03/24 02:59:40;;;;;;;5.38;4.97;;;20.10;42.00;;;;;;4978164;28;20578;-69
2022/03/24 03:02:13;;;;;;;5.55;4.95;;;20.00;41.90;;;;;;4994710;28;20181;-68
2022/03/24 03:04:41;;;;;;;5.72;5.22;;;20.00;42.00;;;;;;4962415;28;20240;-69
2022/03/24 03:07:07;;;;;;;5.90;5.40;;;20.10;41.90;;;;;;4977880;28;20271;-69
2022/03/24 03:09:36;;;;;;;6.32;5.75;;;20.00;41.90;;;;;;4994231;28;20219;-68
2022/03/24 03:12:03;;;;;;;6.25;5.63;;;20.10;41.80;;;;;;4978150;28;20165;-68
2022/03/24 03:14:29;;;;;;;5.88;5.38;;;20.00;41.60;;;;;;4995352;28;20177;-68
2022/03/24 03:16:59;;;;;;;6.38;5.75;;;20.00;41.60;;;;;;4994340;28;20181;-68
2022/03/24 03:19:26;;;;;;;6.68;6.07;;;20.00;41.60;;;;;;4978076;28;20193;-68
2022/03/24 03:21:53;;;;;;;6.57;5.97;;;20.00;41.80;;;;;;4977862;28;20223;-68
2022/03/24 03:24:23;;;;;;;6.15;5.65;;;20.00;41.60;;;;;;4994051;28;20211;-68
2022/03/24 03:26:52;;;;;;;5.45;4.95;;;20.00;41.60;;;;;;4977815;28;20224;-67
2022/03/24 03:29:22;;;;;;;5.43;4.80;;;20.00;41.60;;;;;;4978064;28;20271;-68
2022/03/24 03:31:47;;;;;;;5.03;4.50;;;20.00;41.90;;;;;;4993907;28;20239;-68
2022/03/24 03:34:14;;;;;;;4.60;4.20;;;20.00;41.80;;;;;;4995019;28;20173;-68
2022/03/24 03:36:41;;;;;;;5.18;4.78;;;20.00;41.90;;;;;;4960038;28;20231;-67
2022/03/24 03:39:08;;;;;;;5.47;4.97;;;20.00;41.90;;;;;;4977936;28;20188;-68
2022/03/24 03:41:36;;;;;;;5.20;4.80;;;20.00;41.90;;;;;;4993833;28;20196;-67
2022/03/24 03:44:03;;;;;;;5.20;4.70;;;20.00;41.80;;;;;;4977648;28;20196;-69
2022/03/24 03:46:29;;;;;;;5.30;4.90;;;20.00;41.90;;;;;;4977411;28;20219;-68
2022/03/24 03:48:55;;;;;;;5.22;4.72;;;20.00;41.90;;;;;;4993661;28;20666;-68
2022/03/24 03:51:21;;;;;;;5.65;5.15;;;20.00;41.90;;;;;;4977501;28;20177;-68
2022/03/24 03:53:47;;;;;;;5.45;5.05;;;20.00;41.90;;;;;;4994661;28;20220;-68
2022/03/24 03:56:12;;;;;;;5.53;5.10;;;20.00;41.80;;;;;;4977306;28;20204;-68
2022/03/24 03:58:39;;;;;;;6.07;5.57;;;20.00;41.80;;;;;;4959359;28;20189;-67
2022/03/24 04:01:08;;;;;;;6.70;6.00;;;20.00;41.60;;;;;;4977233;28;20169;-68
2022/03/24 04:03:37;;;;;;;6.35;5.72;;;20.00;41.60;;;;;;4994510;28;20165;-68
2022/03/24 04:06:09;;;;;;;6.68;6.07;;;20.00;41.60;;;;;;4961183;28;20211;-68
2022/03/24 04:08:38;;;;;;;6.38;5.72;;;20.00;41.60;;;;;;4977224;28;20176;-68
2022/03/24 04:11:09;;;;;;;5.65;5.15;;;20.00;41.60;;;;;;4976953;28;20188;-68
2022/03/24 04:13:41;;;;;;;4.97;4.57;;;19.90;41.50;;;;;;4976949;28;20169;-68
2022/03/24 04:16:12;;;;;;;4.82;4.50;;;19.90;41.60;;;;;;4976648;28;20204;-68
2022/03/24 04:18:44;;;;;;;4.93;4.47;;;20.00;41.80;;;;;;4961007;28;20188;-68
2022/03/24 04:21:11;;;;;;;5.10;4.70;;;20.00;41.90;;;;;;4976999;28;20225;-68
2022/03/24 04:23:39;;;;;;;5.30;4.80;;;20.00;41.80;;;;;;4960534;28;20193;-68
2022/03/24 04:26:06;;;;;;;5.05;4.65;;;20.00;41.80;;;;;;4960402;28;20696;-68
2022/03/24 04:28:33;;;;;;;5.40;4.90;;;20.00;41.90;;;;;;4976676;28;20181;-68
2022/03/24 04:30:59;;;;;;;5.30;4.80;;;20.00;41.80;;;;;;4960463;28;20221;-68
2022/03/24 04:33:25;;;;;;;4.85;4.45;;;20.00;41.90;;;;;;4976337;28;20657;-68
2022/03/24 04:35:52;;;;;;;5.93;5.32;;;19.90;41.70;;;;;;4976674;28;20248;-68
2022/03/24 04:38:18;;;;;;;6.20;5.63;;;20.00;41.80;;;;;;4960717;28;20193;-68
2022/03/24 04:40:44;;;;;;;6.63;6.03;;;20.00;41.60;;;;;;4960310;28;20177;-68
2022/03/24 04:43:10;;;;;;;6.72;6.13;;;19.90;41.60;;;;;;4960094;28;20208;-68
2022/03/24 04:45:36;;;;;;;7.13;6.43;;;19.90;41.60;;;;;;4960158;28;20269;-67
2022/03/24 04:48:03;;;;;;;6.80;6.15;;;19.90;41.50;;;;;;4959690;28;20239;-68
2022/03/24 04:50:30;;;;;;;6.55;5.88;;;19.90;41.60;;;;;;4959983;28;20244;-68
2022/03/24 04:52:56;;;;;;;7.72;6.60;;;19.90;41.50;;;;;;4959939;28;20185;-68
2022/03/24 04:55:22;;;;;;;6.18;5.68;;;19.90;41.50;;;;;;4960297;28;20216;-68
2022/03/24 04:57:48;;;;;;;6.65;6.03;;;19.90;41.50;;;;;;4975724;28;20192;-68
2022/03/24 05:00:17;;;;;;;5.53;5.03;;;19.90;41.50;;;;;;4976298;28;20223;-68
2022/03/24 05:02:46;;;;;;;5.63;5.13;;;19.90;41.60;;;;;;4993724;28;20176;-68
2022/03/24 05:05:13;;;;;;;5.70;5.20;;;19.90;41.60;;;;;;4960331;28;20215;-68
2022/03/24 05:07:40;;;;;;;8.32;5.38;;;19.90;41.70;;;;;;4975772;28;20304;-68
2022/03/24 05:10:07;;;;;;;5.40;4.90;;;19.90;41.60;;;;;;4959834;28;20220;-68
2022/03/24 05:12:33;;;;;;;5.63;5.05;;;19.90;41.70;;;;;;4960084;28;20173;-68
2022/03/24 05:14:59;;;;;;;5.47;4.97;;;19.90;41.70;;;;;;4975812;28;20211;-68
2022/03/24 05:17:25;;;;;;;5.60;5.10;;;19.90;41.80;;;;;;4975634;28;20189;-69
2022/03/24 05:19:52;;;;;;;5.65;5.15;;;19.90;41.60;;;;;;4959723;28;20195;-69
2022/03/24 05:22:18;;;;;;;6.10;5.50;;;19.90;41.60;;;;;;4975814;28;20197;-68
2022/03/24 05:24:44;;;;;;;5.70;5.20;;;19.90;41.60;;;;;;4992347;28;20228;-69
2022/03/24 05:27:10;;;;;;;6.10;5.53;;;19.90;41.60;;;;;;4991725;28;20185;-68
2022/03/24 05:29:37;;;;;;;6.60;6.03;;;19.90;41.70;;;;;;4975559;28;20288;-68
2022/03/24 05:32:04;;;;;;;7.07;6.45;;;19.90;41.60;;;;;;4975819;28;20666;-68
2022/03/24 05:34:31;;;;;;;7.07;6.35;;;19.90;41.60;;;;;;4975563;28;20196;-68
2022/03/24 05:36:58;;;;;;;8.10;7.30;;;19.90;41.60;;;;;;4975434;28;20222;-69
2022/03/24 05:39:24;;;;;;;7.70;6.93;;;19.90;41.50;;;;;;4992887;28;20207;-68
2022/03/24 05:41:50;;;;;;;8.00;7.30;;;19.90;41.50;;;;;;4975419;28;20562;-68
2022/03/24 05:44:16;;;;;;;7.50;6.88;;;19.90;41.50;;;;;;4959247;28;20185;-68
2022/03/24 05:46:44;;;;;;;8.55;7.20;;;19.90;41.60;;;;;;4975539;28;20200;-68
2022/03/24 05:49:14;;;;;;;6.57;5.90;;;19.90;41.50;;;;;;4959174;28;20217;-68
2022/03/24 05:51:58;;;;;;;5.95;5.45;;;19.90;41.50;;;;;;4978102;28;20228;-68
2022/03/24 05:54:24;;;;;;;6.22;5.63;;;19.90;41.70;;;;;;4959267;28;20214;-69
2022/03/24 05:56:50;;;;;;;6.10;5.50;;;19.90;41.60;;;;;;4992609;28;20175;-69
2022/03/24 05:59:16;;;;;;;7.03;6.30;;;19.90;41.60;;;;;;4975772;28;20591;-68
2022/03/24 06:01:45;;;;;;;5.78;5.28;;;19.90;41.70;;;;;;4979365;28;20645;-68
2022/03/24 06:04:13;;;;;;;6.70;5.55;;;19.90;41.70;;;;;;4979583;28;20181;-68
2022/03/24 06:06:40;;;;;;;6.45;5.80;;;19.90;41.60;;;;;;4962946;28;20661;-69
2022/03/24 06:09:07;;;;;;;5.78;5.28;;;19.90;41.60;;;;;;4962989;28;20204;-68
2022/03/24 06:11:38;;;;;;;6.38;5.78;;;19.90;41.50;;;;;;4996599;28;20223;-69
2022/03/24 06:14:07;;;;;;;7.57;6.88;;;19.90;41.50;;;;;;4978950;28;20227;-70
2022/03/24 06:16:35;;;;;;;7.35;6.65;;;19.90;41.50;;;;;;4978590;28;20205;-68
2022/03/24 06:19:00;;;;;;;7.32;6.60;;;19.90;41.60;;;;;;4962870;28;20189;-68
2022/03/24 06:21:28;;;;;;;7.30;6.60;;;19.90;41.60;;;;;;4996405;28;20199;-69
2022/03/24 06:23:53;;;;;;;7.63;6.90;;;19.90;41.50;;;;;;4962861;28;20199;-68
2022/03/24 06:26:21;;;;;;;7.43;6.72;;;19.90;41.50;;;;;;4962704;28;20217;-68
2022/03/24 06:28:48;;;;;;;7.15;6.45;;;19.90;41.50;;;;;;4978845;28;20204;-68
2022/03/24 06:31:15;;;;;;;7.82;7.00;;;19.90;41.50;;;;;;4996309;28;20692;-68
2022/03/24 06:33:41;;;;;;;6.35;5.75;;;19.90;41.50;;;;;;4978872;28;20173;-68
2022/03/24 06:36:08;;;;;;;6.07;5.47;;;19.90;41.50;;;;;;4978584;28;20216;-68
2022/03/24 06:38:36;;;;;;;5.68;5.18;;;19.90;41.60;;;;;;4967208;28;20196;-68
2022/03/24 06:41:02;;;;;;;6.07;5.55;;;19.90;41.50;;;;;;4976635;28;20178;-68
2022/03/24 06:43:28;;;;;;;6.30;5.70;;;20.00;41.60;;;;;;4943458;28;20414;-68
2022/03/24 06:45:54;;;;;;;5.88;5.38;;;20.00;41.60;;;;;;4959214;28;20210;-68
2022/03/24 06:48:19;;;;;;;6.10;5.45;;;20.00;41.60;;;;;;4976364;28;20251;-68
2022/03/24 06:50:45;;;;;;;6.05;5.47;;;20.10;41.70;;;;;;4959164;28;20217;-68
2022/03/24 06:55:47;;;;;;;5.97;5.38;;;20.10;41.70;;;;;;5034853;28;20219;-69
2022/03/24 06:58:13;;;;;;;5.82;5.32;;;20.10;41.70;;;;;;5019298;28;20183;-70
2022/03/24 07:00:39;;;;;;;6.72;6.13;;;20.10;41.70;;;;;;5020711;28;20279;-71
2022/03/24 07:03:05;;;;;;;7.28;6.63;;;20.20;41.60;;;;;;5020822;28;20226;-71
2022/03/24 07:05:31;;;;;;;7.53;6.82;;;20.20;41.60;;;;;;5018951;28;20567;-72
2022/03/24 07:07:57;;;;;;;7.47;6.78;;;20.20;41.60;;;;;;5022008;28;20198;-71
2022/03/24 07:10:23;;;;;;;8.05;6.88;;;20.20;41.60;;;;;;5017248;28;20299;-72
2022/03/24 07:12:49;;;;;;;7.80;7.10;;;20.20;41.50;;;;;;5001331;28;20216;-71
2022/03/24 07:15:16;;;;;;;7.38;6.68;;;20.20;41.50;;;;;;5034338;28;20187;-72
2022/03/24 07:17:41;;;;;;;7.80;7.07;;;20.30;41.60;;;;;;5033906;28;20196;-71
2022/03/24 07:20:08;;;;;;;6.82;6.20;;;20.30;41.60;;;;;;5037709;28;20195;-71
2022/03/24 07:22:36;;;;;;;6.90;6.30;;;20.30;41.60;;;;;;5020763;28;20692;-72
2022/03/24 07:25:03;;;;;;;7.40;6.70;;;20.30;41.60;;;;;;5021228;28;20226;-72
2022/03/24 07:27:29;;;;;;;7.28;6.65;;;20.30;41.50;;;;;;5000717;28;20196;-72
2022/03/24 07:29:55;;;;;;;6.50;5.90;;;20.40;41.50;;;;;;5015092;28;20219;-71
2022/03/24 07:32:21;;;;;;;6.53;5.93;;;20.40;41.60;;;;;;5013805;28;20214;-71
2022/03/24 07:34:47;;;;;;;6.72;6.05;;;20.40;41.50;;;;;;5013970;28;20188;-72
2022/03/24 07:37:14;;;;;;;6.65;6.05;;;20.40;41.50;;;;;;5028542;28;20192;-72
2022/03/24 07:39:40;;;;;;;6.65;6.05;;;20.40;41.50;;;;;;5017331;28;20213;-71
2022/03/24 07:42:06;;;;;;;6.35;5.70;;;20.40;41.50;;;;;;5018263;28;20230;-72
2022/03/24 07:44:32;;;;;;;6.40;5.80;;;20.50;41.50;;;;;;5002311;28;20198;-72
2022/03/24 07:46:58;;;;;;;6.40;5.90;;;20.50;41.50;;;;;;5034672;28;20199;-72
2022/03/24 07:49:24;;;;;;;6.72;6.13;;;20.50;41.50;;;;;;5019002;28;20265;-71
2022/03/24 07:51:49;;;;;;;7.40;6.70;;;20.50;41.40;;;;;;5018229;28;20198;-72
2022/03/24 07:54:15;;;;;;;6.85;6.03;;;20.50;41.40;;;;;;5035995;28;20195;-72
2022/03/24 07:56:43;;;;;;;6.43;5.82;;;20.50;41.40;;;;;;5017533;28;20256;-72
2022/03/24 07:59:09;;;;;;;6.30;5.75;;;20.60;41.50;;;;;;5001418;28;20644;-72
2022/03/24 08:01:36;;;;;;;6.05;5.55;;;20.60;41.50;;;;;;5035071;28;20203;-72
2022/03/24 08:04:05;;;;;;;6.22;5.68;;;20.60;41.50;;;;;;5001828;28;20259;-71
2022/03/24 08:06:35;;;;;;;8.60;6.05;;;20.60;41.50;;;;;;4998000;28;20196;-71
2022/03/24 08:09:02;;;;;;;6.68;6.07;;;20.60;41.60;;;;;;4998053;28;20191;-72
2022/03/24 08:11:28;;;;;;;6.10;5.53;;;20.60;41.50;;;;;;4998061;28;20176;-71
2022/03/24 08:13:56;;;;;;;5.90;5.40;;;20.60;41.50;;;;;;5014249;28;20707;-71
2022/03/24 08:16:25;;;;;;;7.03;6.20;;;20.60;41.60;;;;;;5017580;28;20258;-71
2022/03/24 08:18:51;;;;;;;6.90;6.20;;;20.70;41.70;;;;;;5001518;28;20198;-72
2022/03/24 08:21:17;;;;;;;6.88;6.28;;;20.70;41.70;;;;;;5017788;28;20179;-72
2022/03/24 08:23:43;;;;;;;5.88;5.35;;;20.70;41.70;;;;;;5000918;28;20214;-72
2022/03/24 08:26:09;;;;;;;6.68;5.82;;;20.70;41.70;;;;;;5019593;28;20195;-72
2022/03/24 08:28:36;;;;;;;6.50;5.90;;;20.70;41.70;;;;;;5017628;28;20211;-72
2022/03/24 08:31:02;;;;;;;6.00;5.22;;;20.70;41.80;;;;;;5032963;28;20207;-71
2022/03/24 08:33:28;;;;;;;7.13;5.85;;;20.70;41.80;;;;;;5015726;28;20229;-72
2022/03/24 08:35:54;;;;;;;5.82;5.32;;;20.70;41.80;;;;;;5031739;28;20179;-72
2022/03/24 08:38:20;;;;;;;7.32;6.15;;;20.70;41.80;;;;;;5015964;28;20183;-72
2022/03/24 08:40:46;;;;;;;6.72;5.60;;;20.70;41.90;;;;;;4999579;28;20183;-72
2022/03/24 08:43:11;;;;;;;6.22;5.63;;;20.70;41.80;;;;;;4999342;28;20210;-72
2022/03/24 08:45:38;;;;;;;6.18;5.57;;;20.70;41.80;;;;;;4999181;28;20642;-72
2022/03/24 08:48:06;;;;;;;6.20;5.60;;;20.70;41.80;;;;;;5032052;28;20194;-71
2022/03/24 08:50:35;;;;;;;5.50;5.00;;;20.70;41.80;;;;;;5032167;28;20301;-72
2022/03/24 08:53:04;;;;;;;7.05;5.55;;;20.70;41.80;;;;;;5031667;28;20246;-72
2022/03/24 08:55:30;;;;;;;7.07;5.45;;;20.70;41.90;;;;;;5031729;28;20199;-71
2022/03/24 08:57:55;;;;;;;5.80;5.30;;;20.70;41.80;;;;;;5033093;28;20187;-72
2022/03/24 09:00:23;;;;;;;6.22;5.63;;;20.70;41.80;;;;;;5032000;28;20175;-72
2022/03/24 09:02:53;;;;;;;6.15;5.32;;;20.70;41.80;;;;;;5031650;28;20599;-72
2022/03/24 09:05:19;;;;;;;5.70;5.20;;;20.70;41.80;;;;;;5032972;28;20183;-72
2022/03/24 09:07:46;;;;;;;5.85;5.35;;;20.70;41.80;;;;;;4998929;28;20187;-71
2022/03/24 09:10:14;;;;;;;6.22;5.13;;;20.70;41.80;;;;;;5015057;28;20282;-72
2022/03/24 09:12:44;;;;;;;5.40;4.90;;;20.70;41.80;;;;;;5015542;28;20242;-71
2022/03/24 09:15:12;;;;;;;6.63;5.18;;;20.70;41.90;;;;;;5015600;28;20206;-71
2022/03/24 09:17:39;;;;;;;5.95;4.93;;;20.80;41.90;;;;;;4998510;28;20597;-72
2022/03/24 09:20:12;;;;;;;6.40;5.20;;;20.70;42.00;;;;;;5015085;28;20183;-72
2022/03/24 09:22:44;;;;;;;5.13;4.68;;;20.70;41.80;;;;;;4999002;28;20225;-72
2022/03/24 09:25:15;;;;;;;4.95;4.55;;;20.70;41.90;;;;;;5015375;28;20648;-72
2022/03/24 09:27:42;;;;;;;5.05;4.63;;;20.80;41.90;;;;;;5029668;28;20229;-72
2022/03/24 09:30:15;;;;;;;5.22;4.75;;;20.80;42.00;;;;;;5031356;28;20276;-72
2022/03/24 09:32:42;;;;;;;4.88;4.47;;;20.80;42.20;;;;;;5031481;28;20207;-72
2022/03/24 09:35:08;;;;;;;5.15;4.65;;;20.80;42.10;;;;;;5031271;28;20194;-72
2022/03/24 09:37:34;;;;;;;5.55;5.05;;;20.80;42.10;;;;;;5032214;28;20175;-72
2022/03/24 09:40:01;;;;;;;5.05;4.65;;;20.80;42.00;;;;;;5032500;28;20187;-72
2022/03/24 09:42:28;;;;;;;5.28;4.57;;;20.70;41.70;;;;;;5015068;28;20207;-72
2022/03/24 09:45:02;;;;;;;4.95;4.55;;;20.80;41.90;;;;;;5032509;28;20329;-72
2022/03/24 09:47:30;;;;;;;5.28;4.78;;;20.80;42.00;;;;;;5027707;28;20195;-72
2022/03/24 09:49:56;;;;;;;5.18;4.68;;;20.80;41.90;;;;;;5032828;28;20214;-71
2022/03/24 09:52:23;;;;;;;4.55;4.18;;;20.80;42.00;;;;;;5032441;28;20196;-72
2022/03/24 09:54:49;;;;;;;5.55;4.57;;;20.80;41.90;;;;;;5033985;28;20304;-72
2022/03/24 09:57:15;;;;;;;4.65;4.25;;;20.80;42.00;;;;;;5031478;28;20179;-71
2022/03/24 09:59:43;;;;;;;4.68;4.28;;;20.80;41.70;;;;;;5031815;28;20197;-73
2022/03/24 10:02:10;;;;;;;4.53;4.10;;;20.80;41.70;;;;;;5032294;28;20211;-72
2022/03/24 10:04:54;;;;;;;4.43;4.03;;;20.80;41.80;;;;;;5032415;28;20192;-71
2022/03/24 10:07:24;;;;;;;4.45;4.10;;;20.70;41.70;;;;;;5021826;28;20191;-72
2022/03/24 10:09:53;;;;;;;4.85;4.45;;;20.80;41.60;;;;;;5016990;28;20215;-71
2022/03/24 10:12:38;;;;;;;4.90;4.40;;;20.80;41.80;;;;;;4999984;28;20211;-72
2022/03/24 10:15:12;;;;;;;5.63;3.90;;;20.80;41.70;;;;;;5016721;28;20176;-72
2022/03/24 10:17:48;;;;;;;4.28;3.97;;;20.80;41.60;;;;;;5035637;28;20210;-71
2022/03/24 10:20:17;;;;;;;4.40;4.00;;;20.70;41.70;;;;;;5034371;28;20195;-71
2022/03/24 10:23:04;;;;;;;4.53;4.13;;;20.80;41.70;;;;;;5034751;28;20278;-72
2022/03/24 10:25:33;;;;;;;6.25;4.30;;;20.80;41.70;;;;;;5033628;28;20221;-72
2022/03/24 10:28:09;;;;;;;3.90;3.60;;;20.80;42.20;;;;;;5018337;28;20237;-72
2022/03/24 10:30:52;;;;;;;3.95;3.42;;;20.80;42.30;;;;;;5033465;28;20215;-72
2022/03/24 10:33:37;;;;;;;5.80;3.75;;;20.80;42.20;;;;;;5035871;28;20214;-72
2022/03/24 10:36:10;;;;;;;5.30;4.10;;;20.80;42.30;;;;;;5032752;28;20218;-71
2022/03/24 10:38:40;;;;;;;4.20;3.85;;;20.80;42.20;;;;;;4999650;28;20205;-71
2022/03/24 10:41:25;;;;;;;6.43;3.83;;;20.80;42.20;;;;;;5016503;28;20197;-72
2022/03/24 10:44:12;;;;;;;5.18;3.80;;;20.80;42.90;;;;;;4999837;28;20274;-72
2022/03/24 10:46:42;;;;;;;3.85;3.45;;;20.80;42.70;;;;;;5001275;28;20171;-72
2022/03/24 10:49:20;;;;;;;4.07;3.78;;;20.80;42.30;;;;;;5012115;28;20572;-72
2022/03/24 10:51:49;;;;;;;5.93;4.13;;;20.80;42.20;;;;;;5003528;28;20197;-72
2022/03/24 10:54:48;;;;;;;3.85;3.42;;;20.80;42.30;;;;;;5019313;28;20191;-73
2022/03/24 10:57:23;;;;;;;3.67;3.35;;;20.80;42.20;;;;;;5029990;28;20179;-72
2022/03/24 10:59:58;;;;;;;4.80;3.80;;;20.80;42.90;;;;;;5019327;28;20178;-72
2022/03/24 11:02:28;;;;;;;4.60;3.92;;;20.80;42.20;;;;;;5019231;28;20214;-72
2022/03/24 11:04:59;;;;;;;4.40;3.70;;;20.80;42.30;;;;;;5019053;28;20184;-73
2022/03/24 11:07:26;;;;;;;6.03;3.67;;;20.80;42.20;;;;;;5020101;28;20278;-72
2022/03/24 11:09:52;;;;;;;6.47;4.07;;;20.80;42.20;;;;;;5035242;28;20222;-72
2022/03/24 11:12:38;;;;;;;5.22;4.10;;;20.80;43.20;;;;;;5019820;28;20203;-72
2022/03/24 11:15:07;;;;;;;4.95;3.97;;;20.80;42.20;;;;;;5010819;28;20215;-72
2022/03/24 11:17:38;;;;;;;4.82;3.92;;;20.80;42.30;;;;;;5018956;28;20223;-72
2022/03/24 11:20:08;;;;;;;4.70;3.90;;;20.80;42.20;;;;;;5019526;28;20179;-72
2022/03/24 11:23:19;;;;;;;4.30;3.45;;;20.80;42.90;;;;;;5008474;28;20214;-72
2022/03/24 11:25:46;;;;;;;9.95;4.20;;;20.80;43.20;;;;;;4984458;28;20669;-73
2022/03/24 11:28:14;;;;;;;6.07;3.92;;;20.80;43.30;;;;;;5002796;28;20180;-72
2022/03/24 11:30:41;;;;;;;6.00;4.15;;;20.90;43.80;;;;;;5001737;28;20666;-72
2022/03/24 11:33:08;;;;;;;4.45;3.50;;;20.90;43.80;;;;;;4991310;28;20212;-72
2022/03/24 11:35:35;;;;;;;5.90;3.90;;;20.90;43.80;;;;;;5018196;28;20251;-72
2022/03/24 11:38:03;;;;;;;6.53;3.70;;;20.90;43.80;;;;;;5010572;28;20203;-72
2022/03/24 11:40:32;;;;;;;4.95;4.18;;;20.90;44.10;;;;;;5019051;28;20198;-72
2022/03/24 11:43:20;;;;;;;4.85;3.60;;;20.90;44.20;;;;;;5014525;28;20707;-73
2022/03/24 11:45:49;;;;;;;5.35;3.55;;;20.90;43.80;;;;;;5020664;28;20180;-72
2022/03/24 11:48:34;;;;;;;5.03;3.95;;;20.90;43.50;;;;;;5018986;28;20281;-72
2022/03/24 11:51:21;;;;;;;6.40;3.97;;;20.90;43.60;;;;;;5000714;28;20211;-72
2022/03/24 11:54:03;;;;;;;4.60;3.65;;;20.90;43.80;;;;;;5015900;28;20687;-72
2022/03/24 11:56:30;;;;;;;5.57;4.10;;;20.90;43.80;;;;;;5002742;28;20206;-72
2022/03/24 11:58:56;;;;;;;4.93;4.22;;;20.90;44.20;;;;;;5017964;28;20184;-71
2022/03/24 12:01:23;;;;;;;5.10;3.85;;;20.90;44.10;;;;;;5016240;28;20199;-72
2022/03/24 12:03:55;;;;;;;8.95;4.13;;;20.90;43.80;;;;;;5033994;28;20215;-71
2022/03/24 12:06:40;;;;;;;5.53;4.57;;;20.90;43.90;;;;;;4996313;28;20199;-72
2022/03/24 12:09:09;;;;;;;5.35;3.75;;;20.90;43.60;;;;;;5012627;28;20211;-71
2022/03/24 12:11:39;;;;;;;6.60;3.78;;;20.90;43.80;;;;;;4996793;28;20184;-72
2022/03/24 12:14:13;;;;;;;4.90;3.70;;;20.90;43.80;;;;;;4996922;28;20271;-71
2022/03/24 12:16:50;;;;;;;8.55;3.78;;;20.90;44.00;;;;;;5022287;28;20191;-71
2022/03/24 12:19:38;;;;;;;5.47;3.97;;;20.90;43.90;;;;;;5016194;28;20211;-71
2022/03/24 12:22:25;;;;;;;5.93;4.57;;;20.90;43.40;;;;;;5015814;28;20261;-73
2022/03/24 12:25:14;;;;;;;4.32;3.67;;;20.90;43.20;;;;;;5016564;28;20187;-72
2022/03/24 12:28:04;;;;;;;10.50;4.40;;;20.90;43.90;;;;;;5024477;28;20211;-72
2022/03/24 12:30:53;;;;;;;12.98;4.50;;;20.80;44.40;;;;;;5022870;28;20226;-71
2022/03/24 12:33:41;;;;;;;13.38;4.63;;;21.00;47.50;;;;;;5001850;28;20206;-71
2022/03/24 12:36:13;;;;;;;13.38;4.25;;;21.10;48.90;;;;;;5032693;28;20179;-70
2022/03/24 12:38:46;;;;;;;8.43;4.28;;;21.20;49.70;;;;;;5034028;28;20633;-71
2022/03/24 12:41:13;;;;;;;13.73;4.22;;;21.30;50.00;;;;;;5020053;28;20191;-72
2022/03/24 12:43:49;;;;;;;11.23;4.60;;;21.30;50.40;;;;;;4999411;28;20213;-73
2022/03/24 12:46:21;;;;;;;15.57;5.55;;;21.20;50.50;;;;;;5015734;28;20806;-71
2022/03/24 12:48:47;;;;;;;11.82;5.15;;;21.30;50.40;;;;;;5015056;28;20197;-71
2022/03/24 12:51:23;;;;;;;11.57;5.20;;;21.30;50.70;;;;;;4994427;28;20231;-72
2022/03/24 12:53:59;;;;;;;12.32;5.05;;;21.30;50.70;;;;;;5013337;28;20207;-72
2022/03/24 12:56:33;;;;;;;14.43;5.47;;;21.30;50.90;;;;;;5000681;28;20674;-71
2022/03/24 12:59:05;;;;;;;12.85;4.75;;;21.30;50.90;;;;;;5021170;23;20228;-67